createdAt,value
2023-05-23T00:01:46.864Z,13.43
2023-05-23T00:04:18.878Z,18.20
2023-05-23T00:06:50.647Z,15.82
2023-05-23T00:09:19.451Z,16.08
2023-05-23T00:11:47.873Z,13.27
2023-05-23T00:14:18.105Z,15.60
2023-05-23T00:16:49.699Z,15.20
2023-05-23T00:19:18.587Z,16.90
2023-05-23T00:21:49.561Z,16.27
2023-05-23T00:24:18.770Z,14.85
2023-05-23T00:26:47.553Z,18.70
2023-05-23T00:29:17.795Z,14.65
2023-05-23T00:31:47.952Z,15.48
2023-05-23T00:34:18.670Z,16.13
2023-05-23T00:36:50.596Z,16.85
2023-05-23T00:39:20.214Z,16.35
2023-05-23T00:41:51.913Z,15.55
2023-05-23T00:44:21.560Z,17.40
2023-05-23T00:46:53.951Z,14.38
2023-05-23T00:49:23.791Z,14.57
2023-05-23T00:51:52.940Z,17.40
2023-05-23T00:54:24.323Z,17.25
2023-05-23T00:56:52.841Z,20.02
2023-05-23T00:59:24.027Z,19.50
2023-05-23T01:01:54.690Z,15.48
2023-05-23T01:04:26.387Z,17.85
2023-05-23T01:06:56.150Z,16.20
2023-05-23T01:09:25.674Z,17.63
2023-05-23T01:12:00.781Z,18.63
2023-05-23T01:14:32.098Z,21.48
2023-05-23T01:17:04.942Z,21.85
2023-05-23T01:19:46.576Z,19.88
2023-05-23T01:22:25.433Z,20.92
2023-05-23T01:24:57.127Z,18.52
2023-05-23T01:27:33.644Z,26.02
2023-05-23T01:30:05.618Z,23.30
2023-05-23T01:32:34.407Z,19.13
2023-05-23T01:35:03.398Z,18.90
2023-05-23T01:37:31.858Z,18.67
2023-05-23T01:40:00.757Z,18.40
2023-05-23T01:42:29.222Z,19.00
2023-05-23T01:44:59.813Z,18.67
2023-05-23T01:47:29.756Z,21.27
2023-05-23T01:50:03.712Z,19.33
2023-05-23T01:52:35.082Z,20.67
2023-05-23T01:55:04.839Z,18.23
2023-05-23T01:57:33.458Z,18.70
2023-05-23T02:00:01.943Z,18.10
2023-05-23T02:02:44.596Z,22.08
2023-05-23T02:05:14.217Z,19.67
2023-05-23T02:07:42.667Z,20.02
2023-05-23T02:10:11.841Z,19.60
2023-05-23T02:12:40.313Z,22.92
2023-05-23T02:15:09.418Z,25.13
2023-05-23T02:17:38.766Z,21.65
2023-05-23T02:20:10.269Z,22.13
2023-05-23T02:22:38.676Z,22.40
2023-05-23T02:25:07.826Z,24.13
2023-05-23T02:27:37.634Z,20.88
2023-05-23T02:30:11.653Z,21.90
2023-05-23T02:32:40.083Z,24.70
2023-05-23T02:35:11.027Z,22.77
2023-05-23T02:37:39.577Z,22.17
2023-05-23T02:40:09.669Z,30.90
2023-05-23T02:42:38.430Z,23.83
2023-05-23T02:45:07.386Z,21.38
2023-05-23T02:47:36.366Z,24.90
2023-05-23T02:50:05.017Z,25.85
2023-05-23T02:52:35.829Z,23.02
2023-05-23T02:55:04.295Z,24.48
2023-05-23T02:57:40.041Z,24.30
2023-05-23T03:00:10.293Z,24.13
2023-05-23T03:02:39.072Z,25.63
2023-05-23T03:05:08.994Z,23.17
2023-05-23T03:07:39.194Z,25.40
2023-05-23T03:10:08.622Z,23.73
2023-05-23T03:12:37.217Z,27.40
2023-05-23T03:15:06.382Z,25.33
2023-05-23T03:17:35.188Z,28.60
2023-05-23T03:20:04.165Z,27.25
2023-05-23T03:22:32.810Z,26.75
2023-05-23T03:25:03.026Z,26.63
2023-05-23T03:27:31.819Z,26.45
2023-05-23T03:30:00.400Z,24.98
2023-05-23T03:32:29.379Z,31.42
2023-05-23T03:34:58.098Z,24.45
2023-05-23T03:37:26.804Z,28.55
2023-05-23T03:39:55.394Z,32.35
2023-05-23T03:42:25.605Z,26.73
2023-05-23T03:44:54.374Z,28.52
2023-05-23T03:47:25.489Z,34.92
2023-05-23T03:49:54.804Z,28.23
2023-05-23T03:52:23.541Z,27.73
2023-05-23T03:54:52.063Z,30.33
2023-05-23T03:57:21.339Z,28.63
2023-05-23T03:59:52.329Z,31.08
2023-05-23T04:02:22.129Z,29.30
2023-05-23T04:04:58.897Z,29.67
2023-05-23T04:07:27.668Z,35.22
2023-05-23T04:09:56.499Z,26.48
2023-05-23T04:12:26.283Z,30.98
2023-05-23T04:14:57.767Z,32.33
2023-05-23T04:17:29.716Z,33.78
2023-05-23T04:19:59.007Z,29.08
2023-05-23T04:22:27.454Z,29.75
2023-05-23T04:24:56.051Z,35.95
2023-05-23T04:27:26.083Z,34.80
2023-05-23T04:29:58.239Z,36.70
2023-05-23T04:32:26.841Z,35.65
2023-05-23T04:34:57.127Z,32.70
2023-05-23T04:37:27.639Z,32.90
2023-05-23T04:39:56.681Z,35.08
2023-05-23T04:42:48.868Z,34.63
2023-05-23T04:45:46.527Z,40.30
2023-05-23T04:48:35.219Z,31.25
2023-05-23T04:51:07.910Z,30.25
2023-05-23T04:53:41.248Z,32.40
2023-05-23T04:56:12.395Z,37.20
2023-05-23T04:58:42.306Z,34.45
2023-05-23T05:01:24.671Z,35.13
2023-05-23T05:03:53.910Z,43.08
2023-05-23T05:06:22.439Z,37.78
2023-05-23T05:08:53.202Z,33.38
2023-05-23T05:11:23.489Z,40.85
2023-05-23T05:13:54.078Z,42.53
2023-05-23T05:16:26.683Z,40.15
2023-05-23T05:18:56.088Z,40.33
2023-05-23T05:21:25.231Z,49.17
2023-05-23T05:23:54.601Z,45.72
2023-05-23T05:26:23.701Z,41.03
2023-05-23T05:28:53.120Z,46.80
2023-05-23T05:31:26.825Z,51.00
2023-05-23T05:33:55.364Z,48.03
2023-05-23T05:36:23.825Z,44.28
2023-05-23T05:38:53.186Z,47.67
2023-05-23T05:47:19.007Z,53.20
2023-05-23T05:49:48.253Z,53.53
2023-05-23T05:52:16.704Z,49.30
2023-05-23T05:54:45.277Z,56.97
2023-05-23T05:57:18.075Z,44.30
2023-05-23T05:59:46.833Z,49.00
2023-05-23T06:02:22.904Z,45.10
2023-05-23T06:04:51.740Z,45.13
2023-05-23T06:07:20.358Z,48.60
2023-05-23T06:09:48.837Z,45.35
2023-05-23T06:12:18.410Z,44.17
2023-05-23T06:14:47.945Z,48.88
2023-05-23T06:17:18.429Z,47.85
2023-05-23T06:19:47.120Z,42.20
2023-05-23T06:22:16.733Z,44.33
2023-05-23T06:24:46.593Z,48.30
2023-05-23T06:27:17.025Z,49.13
2023-05-23T06:29:48.180Z,49.22
2023-05-23T06:32:20.751Z,54.38
2023-05-23T06:34:52.638Z,48.80
2023-05-23T06:37:21.055Z,54.42
2023-05-23T06:39:49.607Z,46.53
2023-05-23T06:42:21.451Z,55.05
2023-05-23T06:45:14.972Z,43.92
2023-05-23T06:47:48.538Z,46.70
2023-05-23T06:50:20.240Z,56.40
2023-05-23T06:52:51.092Z,44.55
2023-05-23T06:55:20.436Z,42.95
2023-05-23T06:57:52.368Z,43.90
2023-05-23T07:00:22.969Z,40.45
2023-05-23T07:03:05.431Z,45.72
2023-05-23T07:05:40.097Z,42.55
2023-05-23T07:08:12.152Z,41.25
2023-05-23T07:10:44.118Z,42.88
2023-05-23T07:13:25.560Z,39.42
2023-05-23T07:15:57.593Z,38.35
2023-05-23T07:18:51.385Z,49.55
2023-05-23T07:21:21.530Z,46.53
2023-05-23T07:23:54.966Z,43.90
2023-05-23T07:26:24.439Z,49.78
2023-05-23T07:28:56.677Z,48.15
2023-05-23T07:31:25.501Z,46.97
2023-05-23T07:33:58.594Z,37.08
2023-05-23T07:36:35.873Z,39.92
2023-05-23T07:39:05.626Z,39.90
2023-05-23T07:41:34.373Z,38.63
2023-05-23T07:44:02.946Z,35.00
2023-05-23T07:46:34.750Z,44.03
2023-05-23T07:49:03.258Z,43.42
2023-05-23T07:51:31.736Z,42.42
2023-05-23T07:54:03.278Z,47.15
2023-05-23T07:56:32.124Z,41.17
2023-05-23T07:59:03.000Z,39.97
2023-05-23T08:01:31.612Z,38.97
2023-05-23T08:04:04.886Z,35.67
2023-05-23T08:06:38.692Z,33.42
2023-05-23T08:09:13.350Z,36.38
2023-05-23T08:11:51.988Z,39.30
2023-05-23T08:14:22.771Z,36.95
2023-05-23T08:17:13.900Z,35.95
2023-05-23T08:19:44.916Z,35.45
2023-05-23T08:22:13.775Z,33.40
2023-05-23T08:24:43.762Z,35.15
2023-05-23T08:27:12.612Z,35.55
2023-05-23T08:29:41.451Z,40.30
2023-05-23T08:32:10.402Z,40.38
2023-05-23T08:34:39.257Z,39.33
2023-05-23T08:37:08.259Z,39.85
2023-05-23T08:39:36.858Z,38.78
2023-05-23T08:42:35.434Z,37.40
2023-05-23T08:45:05.506Z,36.53
2023-05-23T08:47:36.048Z,34.28
2023-05-23T08:50:08.070Z,32.92
2023-05-23T08:52:37.160Z,32.25
2023-05-23T08:55:06.599Z,34.25
2023-05-23T08:57:38.151Z,31.83
2023-05-23T09:00:23.410Z,31.23
2023-05-23T09:02:52.832Z,31.52
2023-05-23T09:05:47.659Z,34.95
2023-05-23T09:08:16.804Z,35.70
2023-05-23T09:10:45.984Z,37.22
2023-05-23T09:13:20.568Z,38.25
2023-05-23T09:16:04.860Z,37.78
2023-05-23T09:18:40.562Z,36.63
2023-05-23T09:21:10.152Z,39.47
2023-05-23T09:23:42.803Z,39.30
2023-05-23T09:26:14.296Z,32.97
2023-05-23T09:28:44.605Z,33.42
2023-05-23T09:31:13.502Z,29.45
2023-05-23T09:33:42.603Z,34.45
2023-05-23T09:36:13.749Z,31.45
2023-05-23T09:38:43.217Z,28.98
2023-05-23T09:41:12.854Z,27.70
2023-05-23T09:43:43.492Z,32.00
2023-05-23T09:46:13.920Z,33.17
2023-05-23T09:48:42.893Z,27.60
2023-05-23T09:51:12.528Z,26.98
2023-05-23T09:53:41.079Z,25.73
2023-05-23T09:56:13.259Z,24.50
2023-05-23T09:58:42.406Z,27.60
2023-05-23T10:01:12.336Z,21.98
2023-05-23T10:03:53.749Z,27.10
2023-05-23T10:06:25.726Z,24.63
2023-05-23T10:08:57.370Z,24.63
2023-05-23T10:11:56.213Z,20.83
2023-05-23T10:14:24.700Z,23.73
2023-05-23T10:16:57.662Z,23.42
2023-05-23T10:19:33.712Z,24.75
2023-05-23T10:22:03.729Z,24.52
2023-05-23T10:24:34.840Z,27.95
2023-05-23T10:27:04.578Z,21.73
2023-05-23T10:29:33.702Z,31.75
2023-05-23T10:32:05.711Z,23.92
2023-05-23T10:35:00.256Z,21.40
2023-05-23T10:37:33.691Z,21.52
2023-05-23T10:40:05.549Z,22.45
2023-05-23T10:42:41.662Z,23.88
2023-05-23T10:45:19.476Z,24.52
2023-05-23T10:47:49.262Z,24.33
2023-05-23T10:50:33.853Z,24.05
2023-05-23T10:53:04.046Z,23.48
2023-05-23T10:55:36.895Z,25.45
2023-05-23T10:58:12.119Z,22.52
2023-05-23T11:00:40.868Z,21.77
2023-05-23T11:03:13.595Z,24.75
2023-05-23T11:05:49.931Z,21.58
2023-05-23T11:08:19.404Z,24.92
2023-05-23T11:11:04.658Z,22.17
2023-05-23T11:14:00.227Z,24.45
2023-05-23T11:16:29.841Z,21.85
2023-05-23T11:19:13.311Z,24.52
2023-05-23T11:21:43.779Z,24.70
2023-05-23T11:24:13.226Z,20.85
2023-05-23T11:26:42.370Z,25.48
2023-05-23T11:29:11.805Z,20.95
2023-05-23T11:31:40.806Z,20.80
2023-05-23T11:34:09.434Z,17.92
2023-05-23T11:36:37.977Z,22.75
2023-05-23T11:39:08.545Z,21.65
2023-05-23T11:41:37.056Z,19.48
2023-05-23T11:44:13.745Z,23.95
2023-05-23T11:46:42.178Z,19.30
2023-05-23T11:49:15.101Z,25.40
2023-05-23T11:51:43.788Z,20.70
2023-05-23T11:54:13.630Z,22.70
2023-05-23T11:56:44.524Z,23.15
2023-05-23T11:59:13.018Z,26.63
2023-05-23T12:01:41.778Z,20.90
2023-05-23T12:04:13.118Z,22.13
2023-05-23T12:06:42.493Z,22.95
2023-05-23T12:09:16.584Z,23.63
2023-05-23T12:11:47.335Z,24.38
2023-05-23T12:14:16.790Z,24.65
2023-05-23T12:16:46.936Z,21.30
2023-05-23T12:19:16.636Z,19.55
2023-05-23T12:21:46.188Z,23.13
2023-05-23T12:24:21.411Z,22.00
2023-05-23T12:26:52.859Z,21.10
2023-05-23T12:29:22.496Z,21.08
2023-05-23T12:31:54.218Z,19.23
2023-05-23T12:34:23.005Z,22.48
2023-05-23T12:36:57.142Z,19.92
2023-05-23T12:39:33.736Z,21.40
2023-05-23T12:42:12.779Z,22.55
2023-05-23T12:44:43.843Z,23.58
2023-05-23T12:47:13.439Z,20.25
2023-05-23T12:49:46.642Z,17.90
2023-05-23T12:52:15.115Z,19.88
2023-05-23T12:54:45.186Z,20.67
2023-05-23T12:57:15.128Z,21.83
2023-05-23T12:59:43.979Z,20.38
2023-05-23T13:02:12.908Z,24.40
2023-05-23T13:04:41.750Z,23.38
2023-05-23T13:07:11.486Z,20.70
2023-05-23T13:09:40.647Z,19.50
2023-05-23T13:12:10.562Z,20.02
2023-05-23T13:14:40.200Z,20.67
2023-05-23T13:17:10.612Z,19.13
2023-05-23T13:19:44.711Z,19.38
2023-05-23T13:22:15.282Z,18.88
2023-05-23T13:24:44.491Z,16.33
2023-05-23T13:27:14.554Z,19.33
2023-05-23T13:29:43.141Z,20.40
2023-05-23T13:32:12.123Z,17.85
2023-05-23T13:34:44.855Z,17.15
2023-05-23T13:37:36.971Z,20.98
2023-05-23T13:40:08.581Z,18.73
2023-05-23T13:42:47.191Z,21.92
2023-05-23T13:45:18.800Z,16.58
2023-05-23T13:47:47.894Z,19.17
2023-05-23T13:50:20.160Z,16.63
2023-05-23T13:52:49.665Z,17.83
2023-05-23T13:55:18.987Z,17.33
2023-05-23T13:57:48.993Z,18.85
2023-05-23T14:00:17.810Z,20.15
2023-05-23T14:02:46.382Z,17.58
2023-05-23T14:05:15.636Z,14.73
2023-05-23T14:07:48.743Z,14.32
2023-05-23T14:10:19.736Z,16.80
2023-05-23T14:12:51.236Z,14.73
2023-05-23T14:15:20.297Z,14.95
2023-05-23T14:17:48.772Z,17.00
2023-05-23T14:20:17.291Z,19.58
2023-05-23T14:22:47.013Z,15.65
2023-05-23T14:25:16.650Z,14.18
2023-05-23T14:27:45.445Z,16.55
2023-05-23T14:30:16.209Z,18.27
2023-05-23T14:32:45.206Z,16.90
2023-05-23T14:35:13.954Z,16.73
2023-05-23T14:37:46.860Z,15.68
2023-05-23T14:40:16.806Z,15.75
2023-05-23T14:42:56.797Z,15.25
2023-05-23T14:45:27.548Z,14.38
2023-05-23T14:47:56.652Z,15.70
2023-05-23T14:50:52.581Z,14.38
2023-05-23T14:53:23.960Z,12.98
2023-05-23T14:55:57.750Z,20.02
2023-05-23T14:58:27.679Z,12.10
2023-05-23T15:00:57.571Z,12.80
2023-05-23T15:03:27.024Z,11.70
2023-05-23T15:05:58.112Z,12.18
2023-05-23T15:08:28.796Z,10.98
2023-05-23T15:10:57.641Z,12.40
2023-05-23T15:13:27.376Z,12.30
2023-05-23T15:15:59.414Z,13.10
2023-05-23T15:18:40.883Z,11.80
2023-05-23T15:21:11.862Z,10.52
2023-05-23T15:23:41.704Z,12.25
2023-05-23T15:26:11.454Z,10.77
2023-05-23T15:28:39.918Z,10.60
2023-05-23T15:31:09.839Z,9.70
2023-05-23T15:33:38.910Z,8.70
2023-05-23T15:36:08.148Z,6.75
2023-05-23T15:38:36.833Z,8.32
2023-05-23T15:41:06.337Z,8.52
2023-05-23T15:43:35.586Z,6.70
2023-05-23T15:46:04.597Z,6.80
2023-05-23T15:48:34.853Z,9.20
2023-05-23T15:51:03.406Z,6.70
2023-05-23T15:53:47.875Z,7.68
2023-05-23T15:56:23.737Z,5.93
2023-05-23T15:58:54.239Z,6.25
2023-05-23T16:01:22.806Z,6.50
2023-05-23T16:03:56.093Z,11.07
2023-05-23T16:06:27.797Z,7.75
2023-05-23T16:08:56.262Z,6.07
2023-05-23T16:11:50.428Z,6.28
2023-05-23T16:14:19.737Z,4.47
2023-05-23T16:16:48.183Z,8.38
2023-05-23T16:19:18.157Z,5.30
2023-05-23T16:21:53.550Z,5.03
2023-05-23T16:24:23.046Z,5.43
2023-05-23T16:26:51.825Z,6.15
2023-05-23T16:29:20.826Z,3.58
2023-05-23T16:31:50.252Z,5.88
2023-05-23T16:34:22.678Z,3.90
2023-05-23T16:36:56.129Z,4.88
2023-05-23T16:39:28.777Z,3.05
2023-05-23T16:42:05.964Z,5.38
2023-05-23T16:44:34.489Z,3.97
2023-05-23T16:47:05.436Z,4.80
2023-05-23T16:49:37.664Z,4.63
2023-05-23T16:52:06.649Z,4.80
2023-05-23T16:54:36.993Z,5.20
2023-05-23T16:57:09.081Z,7.45
2023-05-23T16:59:42.168Z,3.15
2023-05-23T17:02:11.912Z,6.28
2023-05-23T17:04:41.938Z,6.70
2023-05-23T17:07:11.664Z,6.68
2023-05-23T17:09:40.548Z,5.82
2023-05-23T17:12:10.652Z,4.20
2023-05-23T17:14:40.605Z,5.40
2023-05-23T17:17:09.078Z,6.72
2023-05-23T17:19:38.503Z,5.88
2023-05-23T17:22:08.675Z,5.00
2023-05-23T17:24:37.707Z,8.18
2023-05-23T17:27:08.144Z,4.47
2023-05-23T17:29:43.025Z,4.55
2023-05-23T17:32:11.530Z,3.70
2023-05-23T17:34:42.553Z,6.28
2023-05-23T17:37:15.212Z,4.15
2023-05-23T17:39:46.502Z,7.60
2023-05-23T17:42:15.219Z,4.95
2023-05-23T17:44:44.654Z,4.32
2023-05-23T17:47:13.703Z,5.00
2023-05-23T17:49:42.825Z,5.22
2023-05-23T17:52:14.909Z,4.93
2023-05-23T17:54:45.021Z,5.93
2023-05-23T17:57:14.079Z,5.40
2023-05-23T17:59:42.693Z,9.20
2023-05-23T18:02:11.639Z,13.77
2023-05-23T18:04:42.977Z,8.48
2023-05-23T18:07:14.845Z,6.72
2023-05-23T18:09:47.980Z,5.93
2023-05-23T18:12:18.041Z,6.20
2023-05-23T18:14:46.711Z,5.97
2023-05-23T18:17:17.361Z,5.05
2023-05-23T18:19:46.494Z,4.68
2023-05-23T18:22:16.578Z,5.70
2023-05-23T18:24:50.693Z,6.45
2023-05-23T18:27:21.814Z,6.18
2023-05-23T18:29:52.206Z,6.18
2023-05-23T18:32:21.480Z,6.47
2023-05-23T18:34:52.194Z,6.18
2023-05-23T18:37:20.570Z,6.10
2023-05-23T18:39:50.786Z,7.32
2023-05-23T18:42:21.502Z,6.18
2023-05-23T18:44:49.953Z,6.18
2023-05-23T18:47:18.396Z,9.32
2023-05-23T18:49:47.057Z,7.85
2023-05-23T18:52:15.838Z,6.70
2023-05-23T18:54:45.105Z,10.40
2023-05-23T18:57:17.802Z,7.65
2023-05-23T18:59:47.335Z,6.70
2023-05-23T19:02:17.356Z,8.05
2023-05-23T19:04:47.918Z,7.82
2023-05-23T19:07:16.437Z,6.85
2023-05-23T19:09:46.963Z,8.63
2023-05-23T19:12:17.675Z,10.35
2023-05-23T19:14:49.226Z,12.43
2023-05-23T19:17:17.821Z,9.77
2023-05-23T19:19:46.708Z,10.23
2023-05-23T19:22:18.441Z,7.07
2023-05-23T19:24:46.950Z,7.78
2023-05-23T19:27:17.672Z,7.53
2023-05-23T19:29:46.246Z,7.90
2023-05-23T19:32:16.656Z,5.93
2023-05-23T19:34:45.582Z,8.52
2023-05-23T19:37:13.968Z,6.85
2023-05-23T19:39:46.030Z,9.90
2023-05-23T19:42:16.910Z,6.38
2023-05-23T19:44:56.793Z,5.68
2023-05-23T19:47:25.268Z,7.70
2023-05-23T19:49:55.365Z,8.07
2023-05-23T19:52:23.919Z,8.02
2023-05-23T19:54:56.044Z,5.70
2023-05-23T19:57:27.048Z,5.70
2023-05-23T19:59:59.078Z,7.65
2023-05-23T20:02:29.785Z,6.45
2023-05-23T20:04:58.443Z,5.57
2023-05-23T20:07:26.995Z,4.93
2023-05-23T20:09:58.396Z,5.05
2023-05-23T20:12:27.222Z,7.15
2023-05-23T20:15:00.740Z,6.43
2023-05-23T20:17:31.250Z,7.72
2023-05-23T20:20:00.317Z,5.00
2023-05-23T20:22:29.067Z,7.13
2023-05-23T20:24:57.934Z,7.88
2023-05-23T20:27:26.844Z,5.55
2023-05-23T20:29:55.330Z,5.67
2023-05-23T20:32:25.317Z,9.60
2023-05-23T20:34:54.831Z,5.30
2023-05-23T20:37:25.445Z,6.30
2023-05-23T20:39:53.938Z,9.88
2023-05-23T20:42:22.650Z,6.13
2023-05-23T20:44:54.352Z,6.28
2023-05-23T20:47:26.642Z,5.43
2023-05-23T20:49:56.051Z,6.97
2023-05-23T20:52:24.594Z,5.53
2023-05-23T20:54:56.098Z,4.83
2023-05-23T20:57:27.527Z,5.18
2023-05-23T20:59:56.475Z,7.83
2023-05-23T21:02:29.545Z,7.37
2023-05-23T21:05:04.859Z,5.30
2023-05-23T21:07:34.376Z,7.20
2023-05-23T21:10:03.641Z,5.70
2023-05-23T21:12:32.406Z,6.37
2023-05-23T21:15:00.972Z,5.93
2023-05-23T21:17:31.125Z,6.57
2023-05-23T21:19:59.756Z,5.43
2023-05-23T21:22:28.617Z,5.57
2023-05-23T21:24:58.043Z,6.63
2023-05-23T21:27:26.884Z,7.03
2023-05-23T21:29:55.505Z,5.97
2023-05-23T21:32:25.407Z,8.43
2023-05-23T21:34:57.345Z,7.77
2023-05-23T21:37:25.806Z,7.37
2023-05-23T21:39:54.286Z,11.47
2023-05-23T21:42:24.861Z,6.10
2023-05-23T21:44:54.057Z,6.40
2023-05-23T21:47:24.656Z,5.80
2023-05-23T21:49:53.458Z,6.37
2023-05-23T21:52:23.650Z,8.60
2023-05-23T21:54:54.539Z,7.57
2023-05-23T21:57:25.229Z,6.53
2023-05-23T22:00:02.032Z,5.87
2023-05-23T22:02:34.032Z,6.80
2023-05-23T22:05:04.613Z,9.80
2023-05-23T22:07:37.295Z,7.53
2023-05-23T22:10:05.983Z,7.13
2023-05-23T22:12:34.400Z,8.50
2023-05-23T22:15:02.957Z,7.13
2023-05-23T22:17:36.359Z,8.37
2023-05-23T22:20:06.461Z,7.23
2023-05-23T22:22:34.911Z,8.37
2023-05-23T22:25:05.472Z,7.03
2023-05-23T22:27:34.102Z,7.13
2023-05-23T22:30:04.828Z,5.90
2023-05-23T22:32:33.559Z,5.83
2023-05-23T22:35:02.191Z,6.50
2023-05-23T22:37:30.824Z,6.53
2023-05-23T22:39:59.580Z,7.30
2023-05-23T22:42:29.486Z,6.60
2023-05-23T22:44:58.040Z,7.57
2023-05-23T22:47:29.360Z,6.93
2023-05-23T22:49:59.262Z,7.10
2023-05-23T22:52:28.525Z,9.10
2023-05-23T22:54:57.097Z,7.57
2023-05-23T22:57:26.887Z,10.20
2023-05-23T22:59:56.705Z,7.87
2023-05-23T23:02:25.237Z,7.93
2023-05-23T23:04:53.737Z,11.97
2023-05-23T23:07:22.156Z,9.07
2023-05-23T23:09:50.692Z,8.20
2023-05-23T23:12:19.447Z,7.30
2023-05-23T23:14:48.024Z,6.27
2023-05-23T23:17:17.822Z,7.17
2023-05-23T23:19:46.940Z,5.70
2023-05-23T23:22:16.662Z,8.93
2023-05-23T23:24:45.405Z,6.87
2023-05-23T23:27:15.021Z,8.00
2023-05-23T23:29:46.336Z,5.93
2023-05-23T23:32:44.333Z,7.07
2023-05-23T23:35:21.305Z,7.13
2023-05-23T23:37:49.712Z,6.57
2023-05-23T23:40:18.325Z,5.97
2023-05-23T23:42:46.747Z,5.77
2023-05-23T23:45:15.170Z,6.40
2023-05-23T23:47:46.304Z,5.43
2023-05-23T23:50:17.026Z,5.93
2023-05-23T23:52:47.888Z,6.90
2023-05-23T23:55:17.450Z,6.07
2023-05-23T23:57:45.914Z,5.33
